Time;durP1;ratioP1;P1;durP2;ratioP2;P2;SDS_P1;SDS_P2;PMS_P1;PMS_P2;Temp;Humidity;BMP_temperature;BMP_pressure;BME280_temperature;BME280_humidity;BME280_pressure;Samples;Min_cycle;Max_cycle;Signal;HPM_P1;HPM_P2
2022/12/09 00:00:52;;;;;;;16.70;11.17;;;1.50;99.90;;;;;;5034179;28;20492;-65
2022/12/09 00:03:19;;;;;;;15.10;11.07;;;1.50;99.90;;;;;;5034249;28;20462;-66
2022/12/09 00:05:46;;;;;;;15.40;9.67;;;1.50;99.90;;;;;;5034589;28;20907;-67
2022/12/09 00:08:13;;;;;;;17.93;13.80;;;1.50;99.90;;;;;;5034761;28;20494;-68
2022/12/09 00:10:44;;;;;;;17.33;13.20;;;1.60;99.90;;;;;;5034377;28;20595;-67
2022/12/09 00:13:11;;;;;;;20.70;12.20;;;1.80;99.90;;;;;;5034702;28;20444;-67
2022/12/09 00:15:41;;;;;;;17.50;11.80;;;2.10;99.90;;;;;;5034637;28;20512;-66
2022/12/09 00:18:08;;;;;;;12.80;9.87;;;2.10;99.90;;;;;;5035408;28;20740;-67
2022/12/09 00:20:35;;;;;;;15.90;11.77;;;2.00;99.90;;;;;;5035636;28;20466;-67
2022/12/09 00:23:02;;;;;;;18.73;11.30;;;2.00;99.90;;;;;;5035188;28;20556;-65
2022/12/09 00:25:29;;;;;;;17.03;11.57;;;2.00;99.90;;;;;;5034547;28;20539;-67
2022/12/09 00:27:57;;;;;;;17.00;11.00;;;1.90;99.90;;;;;;5034582;28;20456;-65
2022/12/09 00:30:24;;;;;;;17.13;10.57;;;1.80;99.90;;;;;;5034477;28;20551;-66
2022/12/09 00:32:51;;;;;;;15.07;10.40;;;1.80;99.90;;;;;;5034906;28;20458;-65
2022/12/09 00:35:18;;;;;;;14.80;10.70;;;1.80;99.90;;;;;;5033877;28;20993;-67
2022/12/09 00:37:45;;;;;;;17.67;11.97;;;1.70;99.90;;;;;;5034188;28;20547;-68
2022/12/09 00:40:13;;;;;;;16.57;11.30;;;1.70;99.90;;;;;;5034299;28;20452;-67
2022/12/09 00:42:40;;;;;;;15.00;11.20;;;1.60;99.90;;;;;;5033980;28;20452;-67
2022/12/09 00:45:09;;;;;;;14.07;10.50;;;1.60;99.90;;;;;;5034456;28;20791;-67
2022/12/09 00:47:36;;;;;;;16.07;11.90;;;1.50;99.90;;;;;;5034224;28;20488;-67
2022/12/09 00:50:04;;;;;;;17.40;10.53;;;1.50;99.90;;;;;;5034447;28;20456;-66
2022/12/09 00:52:31;;;;;;;17.07;10.63;;;1.50;99.90;;;;;;5034491;28;20462;-66
2022/12/09 00:54:58;;;;;;;15.80;10.97;;;1.50;99.90;;;;;;5034393;28;20475;-67
2022/12/09 00:57:25;;;;;;;17.33;12.07;;;1.40;99.90;;;;;;5033757;28;20939;-66
2022/12/09 00:59:51;;;;;;;18.33;11.80;;;1.50;99.90;;;;;;5034428;28;20455;-67
2022/12/09 01:02:19;;;;;;;16.03;11.37;;;1.40;99.90;;;;;;5034111;28;20466;-67
2022/12/09 01:04:49;;;;;;;15.47;10.90;;;1.40;99.90;;;;;;5034145;28;20452;-67
2022/12/09 01:07:16;;;;;;;17.67;11.83;;;1.40;99.90;;;;;;5034563;28;20559;-65
2022/12/09 01:09:43;;;;;;;16.17;11.30;;;1.40;99.90;;;;;;5036242;28;20554;-67
2022/12/09 01:12:10;;;;;;;19.07;12.27;;;1.40;99.90;;;;;;5037600;28;20488;-66
2022/12/09 01:14:37;;;;;;;17.97;11.73;;;1.40;99.90;;;;;;5037182;28;20578;-66
2022/12/09 01:17:03;;;;;;;20.50;12.70;;;1.30;99.90;;;;;;5038470;28;20487;-67
2022/12/09 01:19:32;;;;;;;17.97;12.50;;;1.30;99.90;;;;;;5037630;28;20466;-67
2022/12/09 01:21:59;;;;;;;20.47;12.97;;;1.30;99.90;;;;;;5037739;28;20467;-67
2022/12/09 01:24:26;;;;;;;22.70;13.70;;;1.30;99.90;;;;;;5037186;28;20538;-67
2022/12/09 01:26:53;;;;;;;16.70;12.93;;;1.30;99.90;;;;;;5037243;28;20466;-67
2022/12/09 01:29:20;;;;;;;20.03;12.57;;;1.30;99.90;;;;;;5037821;28;20547;-67
2022/12/09 01:31:47;;;;;;;20.30;13.40;;;1.30;99.90;;;;;;5037670;28;20561;-67
2022/12/09 01:34:13;;;;;;;17.47;12.53;;;1.30;99.90;;;;;;5037721;28;20483;-68
2022/12/09 01:36:42;;;;;;;20.10;13.30;;;1.30;99.90;;;;;;5037309;28;20525;-67
2022/12/09 01:39:10;;;;;;;20.77;13.30;;;1.30;99.90;;;;;;5037383;28;20471;-67
2022/12/09 01:41:37;;;;;;;22.43;14.33;;;1.30;99.90;;;;;;5037288;28;20460;-67
2022/12/09 01:44:13;;;;;;;22.77;13.60;;;1.30;99.90;;;;;;5037185;28;20815;-66
2022/12/09 01:46:41;;;;;;;21.80;14.27;;;1.40;99.90;;;;;;5036841;28;20987;-66
2022/12/09 01:49:11;;;;;;;20.83;13.83;;;1.40;99.90;;;;;;5037156;28;20470;-68
2022/12/09 01:51:39;;;;;;;20.60;13.50;;;1.40;99.90;;;;;;5037067;28;20888;-67
2022/12/09 01:54:09;;;;;;;20.57;14.50;;;1.40;99.90;;;;;;5036622;28;20941;-67
2022/12/09 01:56:37;;;;;;;22.40;15.03;;;1.40;99.90;;;;;;5036878;28;20466;-67
2022/12/09 01:59:08;;;;;;;21.27;14.40;;;1.50;99.90;;;;;;5036775;28;20925;-66
2022/12/09 02:01:35;;;;;;;21.83;14.40;;;1.50;99.90;;;;;;5036922;28;20445;-66
2022/12/09 02:04:03;;;;;;;21.60;14.27;;;1.50;99.90;;;;;;5036932;28;20535;-66
2022/12/09 02:06:30;;;;;;;21.90;14.00;;;1.50;99.90;;;;;;5038605;28;20559;-67
2022/12/09 02:08:57;;;;;;;22.90;14.27;;;1.50;99.90;;;;;;5040121;28;20855;-67
2022/12/09 02:11:37;;;;;;;25.03;14.87;;;1.60;99.90;;;;;;5037405;28;20611;-68
2022/12/09 02:14:09;;;;;;;24.60;16.00;;;1.60;99.90;;;;;;5036758;28;20540;-66
2022/12/09 02:16:41;;;;;;;20.30;14.50;;;1.60;99.90;;;;;;5036941;28;20771;-68
2022/12/09 02:19:26;;;;;;;24.57;15.67;;;1.60;99.90;;;;;;5037164;28;20451;-68
2022/12/09 02:21:58;;;;;;;24.87;14.97;;;1.60;99.90;;;;;;5037294;28;20456;-67
2022/12/09 02:24:36;;;;;;;23.73;15.10;;;1.50;99.90;;;;;;5039840;28;20440;-67
2022/12/09 02:27:12;;;;;;;21.33;14.97;;;1.60;99.90;;;;;;5039047;28;20837;-67
2022/12/09 02:30:05;;;;;;;22.73;15.23;;;1.60;99.90;;;;;;5039679;28;20535;-67
2022/12/09 02:32:56;;;;;;;22.60;15.43;;;1.60;99.90;;;;;;5037304;28;20550;-67
2022/12/09 02:35:30;;;;;;;26.17;16.30;;;1.60;99.90;;;;;;5036391;28;20498;-66
2022/12/09 02:38:01;;;;;;;22.37;15.07;;;1.60;99.90;;;;;;5036779;28;20736;-67
2022/12/09 02:40:34;;;;;;;22.03;14.47;;;1.60;99.90;;;;;;5036374;28;20536;-67
2022/12/09 02:43:04;;;;;;;25.67;15.83;;;1.70;99.90;;;;;;5036068;28;20899;-66
2022/12/09 02:45:32;;;;;;;21.53;14.77;;;1.70;99.90;;;;;;5035780;28;20897;-66
2022/12/09 02:48:02;;;;;;;20.63;14.60;;;1.70;99.90;;;;;;5036136;28;20541;-67
2022/12/09 02:50:35;;;;;;;20.80;14.27;;;1.70;99.90;;;;;;5036631;28;20551;-66
2022/12/09 02:53:05;;;;;;;22.47;14.57;;;1.70;99.90;;;;;;5036693;28;20516;-66
2022/12/09 02:55:34;;;;;;;21.23;14.33;;;1.70;99.90;;;;;;5036670;28;20472;-66
2022/12/09 02:58:02;;;;;;;24.00;16.20;;;1.80;99.90;;;;;;5036598;28;20792;-67
2022/12/09 03:00:29;;;;;;;21.27;13.50;;;1.80;99.90;;;;;;5035821;28;21005;-67
2022/12/09 03:03:01;;;;;;;20.73;13.33;;;1.90;99.90;;;;;;5035673;28;20518;-67
2022/12/09 03:05:39;;;;;;;18.87;12.30;;;1.90;99.90;;;;;;5036175;28;20834;-67
2022/12/09 03:08:14;;;;;;;18.67;13.70;;;1.90;99.90;;;;;;5035590;28;20929;-68
2022/12/09 03:10:47;;;;;;;21.00;14.10;;;1.90;99.90;;;;;;5035291;28;20448;-66
2022/12/09 03:13:18;;;;;;;21.10;13.07;;;1.80;99.90;;;;;;5035680;28;20894;-66
2022/12/09 03:15:49;;;;;;;17.50;13.20;;;1.90;99.90;;;;;;5035552;28;20542;-66
2022/12/09 03:18:19;;;;;;;17.30;12.10;;;1.90;99.90;;;;;;5035525;28;20444;-67
2022/12/09 03:20:50;;;;;;;17.50;12.13;;;1.90;99.90;;;;;;5035428;28;20480;-66
2022/12/09 03:23:19;;;;;;;21.60;12.63;;;2.00;99.90;;;;;;5035101;28;20992;-68
2022/12/09 03:25:50;;;;;;;17.40;11.50;;;2.00;99.90;;;;;;5035308;28;20452;-66
2022/12/09 03:28:21;;;;;;;14.17;11.10;;;2.00;99.90;;;;;;5035199;28;20444;-66
2022/12/09 03:30:48;;;;;;;17.70;10.87;;;2.00;99.90;;;;;;5035198;28;20470;-67
2022/12/09 03:33:17;;;;;;;18.90;14.63;;;2.10;99.90;;;;;;5034979;28;20492;-68
2022/12/09 03:35:49;;;;;;;15.90;10.70;;;2.10;99.90;;;;;;5035129;28;20483;-67
2022/12/09 03:38:20;;;;;;;15.13;10.80;;;2.20;99.90;;;;;;5035120;28;20531;-67
2022/12/09 03:40:54;;;;;;;16.37;11.50;;;2.20;99.90;;;;;;5035034;28;20456;-67
2022/12/09 03:43:25;;;;;;;15.70;10.30;;;2.20;99.90;;;;;;5035063;28;20444;-66
2022/12/09 03:45:53;;;;;;;15.67;10.30;;;2.20;99.90;;;;;;5034850;28;20567;-67
2022/12/09 03:48:20;;;;;;;20.10;10.63;;;2.30;99.90;;;;;;5035093;28;20444;-66
2022/12/09 03:50:55;;;;;;;14.00;10.37;;;2.20;99.90;;;;;;5035477;28;20556;-68
2022/12/09 03:53:29;;;;;;;17.17;11.50;;;2.20;99.90;;;;;;5035012;28;20774;-67
2022/12/09 03:56:02;;;;;;;13.57;10.03;;;2.20;99.90;;;;;;5034722;28;20513;-67
2022/12/09 03:58:33;;;;;;;16.70;12.10;;;2.20;99.90;;;;;;5035241;28;20444;-67
2022/12/09 04:01:02;;;;;;;15.50;10.37;;;2.20;99.90;;;;;;5034799;28;20466;-67
2022/12/09 04:03:29;;;;;;;15.63;10.43;;;2.30;99.90;;;;;;5034920;28;20557;-66
2022/12/09 04:05:57;;;;;;;16.03;11.57;;;2.30;99.90;;;;;;5034323;28;20522;-68
2022/12/09 04:08:24;;;;;;;16.77;11.40;;;2.30;99.90;;;;;;5034710;28;20456;-65
2022/12/09 04:10:51;;;;;;;16.57;10.43;;;2.30;99.90;;;;;;5034596;28;20456;-67
2022/12/09 04:13:18;;;;;;;20.93;11.20;;;2.30;99.90;;;;;;5034213;28;20456;-67
2022/12/09 04:15:44;;;;;;;15.73;10.77;;;2.30;99.90;;;;;;5034562;28;20590;-67
2022/12/09 04:18:11;;;;;;;15.00;11.73;;;2.30;99.90;;;;;;5034350;28;20460;-67
2022/12/09 04:20:38;;;;;;;18.50;12.23;;;2.30;99.90;;;;;;5034619;28;20525;-67
2022/12/09 04:23:06;;;;;;;19.63;12.10;;;2.30;99.90;;;;;;5034407;28;20492;-67
2022/12/09 04:25:33;;;;;;;15.40;10.83;;;2.30;99.90;;;;;;5034894;28;20478;-67
2022/12/09 04:28:00;;;;;;;20.47;12.93;;;2.20;99.90;;;;;;5034502;28;21011;-67
2022/12/09 04:30:27;;;;;;;16.73;11.30;;;2.20;99.90;;;;;;5034561;28;20594;-67
2022/12/09 04:32:53;;;;;;;17.80;11.57;;;2.20;99.90;;;;;;5034633;28;20470;-67
2022/12/09 04:35:21;;;;;;;19.30;12.73;;;2.20;99.90;;;;;;5034308;28;20518;-67
2022/12/09 04:37:48;;;;;;;16.00;11.80;;;2.30;99.90;;;;;;5034563;28;20467;-68
2022/12/09 04:40:17;;;;;;;17.33;11.63;;;2.30;99.90;;;;;;5034717;28;20552;-67
2022/12/09 04:42:43;;;;;;;17.97;12.33;;;2.30;99.90;;;;;;5039615;28;20936;-67
2022/12/09 04:45:11;;;;;;;16.03;11.20;;;2.30;99.90;;;;;;5041760;28;20547;-66
2022/12/09 04:47:38;;;;;;;18.50;13.93;;;2.30;99.90;;;;;;5037888;28;20509;-68
2022/12/09 04:50:06;;;;;;;17.30;11.80;;;2.30;99.90;;;;;;5038001;28;20989;-67
2022/12/09 04:52:33;;;;;;;18.20;13.03;;;2.20;99.90;;;;;;5038059;28;20539;-66
2022/12/09 04:55:01;;;;;;;19.97;13.30;;;2.30;99.90;;;;;;5037966;28;20460;-68
2022/12/09 04:57:29;;;;;;;19.20;12.93;;;2.30;99.90;;;;;;5037770;28;20459;-68
2022/12/09 04:59:56;;;;;;;17.60;13.73;;;2.30;99.90;;;;;;5039019;28;20553;-67
2022/12/09 05:02:23;;;;;;;17.80;12.40;;;2.30;99.90;;;;;;5040184;28;21031;-66
2022/12/09 05:04:50;;;;;;;21.97;12.60;;;2.30;99.90;;;;;;5039105;28;20495;-68
2022/12/09 05:07:17;;;;;;;19.30;14.07;;;2.20;99.90;;;;;;5038319;28;20947;-67
2022/12/09 05:09:44;;;;;;;18.97;12.47;;;2.10;99.90;;;;;;5038022;28;20582;-68
2022/12/09 05:12:10;;;;;;;21.47;14.00;;;2.10;99.90;;;;;;5037843;28;20466;-67
2022/12/09 05:14:39;;;;;;;19.30;12.43;;;2.10;99.90;;;;;;5037903;28;20830;-67
2022/12/09 05:17:06;;;;;;;22.43;13.53;;;2.10;99.90;;;;;;5037865;28;20484;-65
2022/12/09 05:19:33;;;;;;;19.03;13.97;;;2.00;99.90;;;;;;5037703;28;20467;-66
2022/12/09 05:22:00;;;;;;;19.70;12.77;;;2.00;99.90;;;;;;5037766;28;20467;-68
2022/12/09 05:24:27;;;;;;;19.77;13.23;;;1.90;99.90;;;;;;5037823;28;20899;-68
2022/12/09 05:26:54;;;;;;;20.23;13.93;;;1.90;99.90;;;;;;5037292;28;20486;-66
2022/12/09 05:29:20;;;;;;;19.17;13.17;;;1.90;99.90;;;;;;5037232;28;20460;-68
2022/12/09 05:31:50;;;;;;;22.53;14.07;;;1.80;99.90;;;;;;5037553;28;20455;-67
2022/12/09 05:34:17;;;;;;;21.63;13.77;;;1.80;99.90;;;;;;5037862;28;20452;-68
2022/12/09 05:36:44;;;;;;;26.13;14.07;;;1.80;99.90;;;;;;5037342;28;20479;-66
2022/12/09 05:39:11;;;;;;;21.30;13.47;;;1.70;99.90;;;;;;5037305;28;20913;-68
2022/12/09 05:41:37;;;;;;;18.30;13.23;;;1.70;99.90;;;;;;5037048;28;20498;-67
2022/12/09 05:44:04;;;;;;;22.03;14.30;;;1.70;99.90;;;;;;5037580;28;20506;-67
2022/12/09 05:46:31;;;;;;;20.70;13.67;;;1.70;99.90;;;;;;5037676;28;20563;-66
2022/12/09 05:48:59;;;;;;;21.70;14.60;;;1.70;99.90;;;;;;5037229;28;20456;-66
2022/12/09 05:51:28;;;;;;;24.10;14.93;;;1.60;99.90;;;;;;5037168;28;20456;-66
2022/12/09 05:53:56;;;;;;;23.80;15.20;;;1.60;99.90;;;;;;5037176;28;20552;-67
2022/12/09 05:56:25;;;;;;;24.33;15.47;;;1.70;99.90;;;;;;5036551;28;21038;-66
2022/12/09 05:58:53;;;;;;;26.17;14.90;;;1.80;99.90;;;;;;5037284;28;20471;-67
2022/12/09 06:01:21;;;;;;;25.23;16.10;;;1.80;99.90;;;;;;5037046;28;20769;-67
2022/12/09 06:03:49;;;;;;;22.40;15.27;;;1.80;99.90;;;;;;5037222;28;20456;-67
2022/12/09 06:06:19;;;;;;;52.63;32.83;;;1.80;99.90;;;;;;5037115;28;20921;-68
2022/12/09 06:08:46;;;;;;;25.40;16.80;;;1.80;99.90;;;;;;5037089;28;20530;-67
2022/12/09 06:11:16;;;;;;;24.33;15.57;;;1.80;99.90;;;;;;5036983;28;20814;-67
2022/12/09 06:13:43;;;;;;;20.93;15.07;;;1.80;99.90;;;;;;5037162;28;20547;-67
2022/12/09 06:16:10;;;;;;;24.73;16.13;;;1.70;99.90;;;;;;5036664;28;20578;-67
2022/12/09 06:18:37;;;;;;;21.83;14.60;;;1.70;99.90;;;;;;5036705;28;20547;-67
2022/12/09 06:21:06;;;;;;;20.17;13.70;;;1.80;99.90;;;;;;5036441;28;20462;-68
2022/12/09 06:23:35;;;;;;;27.27;14.57;;;1.70;99.90;;;;;;5036580;28;20538;-66
2022/12/09 06:26:02;;;;;;;21.33;14.37;;;1.70;99.90;;;;;;5037127;28;20551;-68
2022/12/09 06:28:29;;;;;;;22.17;15.57;;;1.80;99.90;;;;;;5036680;28;20456;-67
2022/12/09 06:30:57;;;;;;;26.40;16.40;;;1.70;99.90;;;;;;5043319;28;20523;-70
2022/12/09 06:33:24;;;;;;;25.37;15.23;;;1.80;99.90;;;;;;5044153;28;20537;-68
2022/12/09 06:35:51;;;;;;;26.70;16.00;;;1.70;99.90;;;;;;5042451;28;20562;-70
2022/12/09 06:38:18;;;;;;;25.23;15.83;;;1.70;99.90;;;;;;5042689;28;20484;-68
2022/12/09 06:40:46;;;;;;;23.70;15.63;;;1.70;99.90;;;;;;5042924;28;20491;-68
2022/12/09 06:43:13;;;;;;;27.90;16.53;;;1.70;99.90;;;;;;5042610;28;20877;-67
2022/12/09 06:45:39;;;;;;;23.80;15.77;;;1.80;99.90;;;;;;5041805;28;20512;-68
2022/12/09 06:48:06;;;;;;;24.60;16.63;;;1.80;99.90;;;;;;5043369;28;20523;-67
2022/12/09 06:50:33;;;;;;;25.23;15.57;;;1.90;99.90;;;;;;5042901;28;20559;-67
2022/12/09 06:53:00;;;;;;;22.53;14.80;;;1.90;99.90;;;;;;5043266;28;20548;-68
2022/12/09 06:55:27;;;;;;;24.97;14.63;;;1.80;99.90;;;;;;5041958;28;20546;-69
2022/12/09 06:57:55;;;;;;;23.73;15.33;;;1.90;99.90;;;;;;5041922;28;20456;-67
2022/12/09 07:00:22;;;;;;;23.47;15.70;;;1.90;99.90;;;;;;5042296;28;20992;-68
2022/12/09 07:02:49;;;;;;;21.13;13.73;;;1.90;99.90;;;;;;5042117;28;20940;-69
2022/12/09 07:05:18;;;;;;;23.23;14.43;;;1.90;99.90;;;;;;5042924;28;20511;-68
2022/12/09 07:07:49;;;;;;;37.87;24.47;;;1.90;99.90;;;;;;5042433;28;20463;-67
2022/12/09 07:10:16;;;;;;;26.87;16.50;;;1.90;99.90;;;;;;5042531;28;20890;-66
2022/12/09 07:12:43;;;;;;;23.67;15.27;;;1.90;99.90;;;;;;5042721;28;20539;-67
2022/12/09 07:15:12;;;;;;;26.30;16.00;;;1.90;99.90;;;;;;5042950;28;20491;-71
2022/12/09 07:17:39;;;;;;;24.20;15.23;;;1.90;99.90;;;;;;5042978;28;20644;-68
2022/12/09 07:20:07;;;;;;;24.60;14.97;;;1.90;99.90;;;;;;5042247;28;20471;-67
2022/12/09 07:22:34;;;;;;;24.53;14.90;;;1.90;99.90;;;;;;5041579;28;20460;-67
2022/12/09 07:25:01;;;;;;;22.73;15.40;;;2.00;99.90;;;;;;5040961;28;20495;-67
2022/12/09 07:27:28;;;;;;;21.37;13.53;;;2.00;99.90;;;;;;5037271;28;20535;-67
2022/12/09 07:29:56;;;;;;;21.27;14.00;;;2.00;99.90;;;;;;5038804;28;20547;-67
2022/12/09 07:32:24;;;;;;;21.10;14.33;;;2.00;99.90;;;;;;5041616;28;20460;-68
2022/12/09 07:34:51;;;;;;;23.07;15.67;;;2.00;99.90;;;;;;5041632;28;20546;-68
2022/12/09 07:37:18;;;;;;;27.63;15.30;;;2.00;99.90;;;;;;5042681;28;20789;-67
2022/12/09 07:39:44;;;;;;;26.33;16.43;;;2.00;99.90;;;;;;5041043;28;20550;-68
2022/12/09 07:42:11;;;;;;;26.20;16.70;;;1.90;99.90;;;;;;5040732;28;20780;-68
2022/12/09 07:44:38;;;;;;;25.67;16.07;;;1.90;99.90;;;;;;5041451;28;20483;-68
2022/12/09 07:47:05;;;;;;;29.03;15.80;;;1.90;99.90;;;;;;5040889;28;20566;-66
2022/12/09 07:49:33;;;;;;;32.13;15.40;;;1.90;99.90;;;;;;5041380;28;20487;-67
2022/12/09 07:52:00;;;;;;;24.83;15.27;;;1.90;99.90;;;;;;5039512;28;20491;-67
2022/12/09 07:54:27;;;;;;;27.87;16.20;;;1.90;99.90;;;;;;5040800;28;20535;-68
2022/12/09 07:56:53;;;;;;;28.50;16.70;;;1.90;99.90;;;;;;5041923;28;21051;-68
2022/12/09 07:59:20;;;;;;;29.50;16.33;;;2.00;99.90;;;;;;5042592;28;20547;-67
2022/12/09 08:01:47;;;;;;;30.13;15.60;;;2.00;99.90;;;;;;5041850;28;20502;-68
2022/12/09 08:04:14;;;;;;;27.60;16.67;;;2.10;99.90;;;;;;5042559;28;20470;-66
2022/12/09 08:06:45;;;;;;;24.30;15.27;;;2.10;99.90;;;;;;5042133;28;20494;-69
2022/12/09 08:09:13;;;;;;;27.50;16.40;;;2.20;99.90;;;;;;5042606;28;20805;-68
2022/12/09 08:11:40;;;;;;;37.00;16.23;;;2.20;99.90;;;;;;5041493;28;20554;-68
2022/12/09 08:14:10;;;;;;;29.70;17.10;;;2.20;99.90;;;;;;5040967;28;20466;-68
2022/12/09 08:16:37;;;;;;;28.70;17.00;;;2.30;99.90;;;;;;5041351;28;20570;-68
2022/12/09 08:19:03;;;;;;;28.03;17.27;;;2.20;99.90;;;;;;5042420;28;20550;-68
2022/12/09 08:21:32;;;;;;;33.20;17.83;;;2.20;99.90;;;;;;5045883;28;20538;-69
2022/12/09 08:24:04;;;;;;;26.10;17.07;;;2.20;99.90;;;;;;5044377;28;20467;-68
2022/12/09 08:26:31;;;;;;;29.37;16.63;;;2.20;99.90;;;;;;5044819;28;20471;-69
2022/12/09 08:28:59;;;;;;;32.50;19.20;;;2.20;99.90;;;;;;5045212;28;20970;-68
2022/12/09 08:31:26;;;;;;;32.87;18.33;;;2.30;99.90;;;;;;5044321;28;20547;-67
2022/12/09 08:33:54;;;;;;;34.53;22.20;;;2.40;99.90;;;;;;5044184;28;20548;-68
2022/12/09 08:36:22;;;;;;;30.87;17.90;;;2.40;99.90;;;;;;5043620;28;20571;-68
2022/12/09 08:38:49;;;;;;;34.33;18.03;;;2.50;99.90;;;;;;5044327;28;20488;-68
2022/12/09 08:41:21;;;;;;;33.97;18.00;;;2.50;99.90;;;;;;5044483;28;20484;-69
2022/12/09 08:43:48;;;;;;;32.37;18.10;;;2.50;99.90;;;;;;5043966;28;20761;-68
2022/12/09 08:46:15;;;;;;;31.47;18.57;;;2.50;99.90;;;;;;5043333;28;20575;-68
2022/12/09 08:48:43;;;;;;;31.13;18.73;;;2.50;99.90;;;;;;5044311;28;20566;-67
2022/12/09 08:51:11;;;;;;;32.93;18.40;;;2.40;99.90;;;;;;5044948;28;20560;-68
2022/12/09 08:53:38;;;;;;;31.97;17.37;;;2.40;99.90;;;;;;5044477;28;20460;-68
2022/12/09 08:56:10;;;;;;;33.80;18.57;;;2.40;99.90;;;;;;5045579;28;20855;-68
2022/12/09 08:58:38;;;;;;;40.17;21.73;;;2.40;99.90;;;;;;5045590;28;20436;-68
2022/12/09 09:01:05;;;;;;;47.23;28.17;;;2.50;99.90;;;;;;5044013;28;20550;-67
2022/12/09 09:03:32;;;;;;;39.73;21.00;;;2.50;99.90;;;;;;5043939;28;20856;-68
2022/12/09 09:06:02;;;;;;;54.47;32.47;;;2.50;99.90;;;;;;5044843;28;20536;-67
2022/12/09 09:08:29;;;;;;;36.53;21.77;;;2.50;99.90;;;;;;5043815;28;20451;-68
2022/12/09 09:10:56;;;;;;;36.10;20.40;;;2.40;99.90;;;;;;5044014;28;20456;-69
2022/12/09 09:13:23;;;;;;;38.03;21.27;;;2.40;99.90;;;;;;5043531;28;20793;-67
2022/12/09 09:15:51;;;;;;;40.53;20.53;;;2.30;99.90;;;;;;5043899;28;20563;-67
2022/12/09 09:18:18;;;;;;;37.77;20.87;;;2.30;99.90;;;;;;5043152;28;20472;-68
2022/12/09 09:20:47;;;;;;;35.73;19.23;;;2.30;99.90;;;;;;5043841;28;20554;-69
2022/12/09 09:23:14;;;;;;;37.40;19.53;;;2.30;99.90;;;;;;5044077;28;20460;-68
2022/12/09 09:25:41;;;;;;;44.77;22.70;;;2.30;99.90;;;;;;5042856;28;20559;-67
2022/12/09 09:28:08;;;;;;;40.43;21.10;;;2.20;99.90;;;;;;5044080;28;20456;-67
2022/12/09 09:30:36;;;;;;;36.77;21.07;;;2.20;99.90;;;;;;5042822;28;20491;-68
2022/12/09 09:33:05;;;;;;;38.67;20.87;;;2.10;99.90;;;;;;5043554;28;20459;-70
2022/12/09 09:35:31;;;;;;;38.17;20.73;;;2.00;99.90;;;;;;5043455;28;20488;-68
2022/12/09 09:37:58;;;;;;;41.37;23.37;;;2.00;99.90;;;;;;5042645;28;20574;-67
2022/12/09 09:40:27;;;;;;;41.13;21.23;;;2.00;99.90;;;;;;5043717;28;20484;-68
2022/12/09 09:42:55;;;;;;;41.43;21.83;;;2.10;99.90;;;;;;5043266;28;20502;-69
2022/12/09 09:45:24;;;;;;;43.70;21.93;;;2.20;99.90;;;;;;5043534;28;20578;-68
2022/12/09 09:47:55;;;;;;;38.17;21.53;;;2.30;99.90;;;;;;5043713;28;20464;-68
2022/12/09 09:50:32;;;;;;;42.10;22.57;;;2.40;99.90;;;;;;5043811;28;20460;-68
2022/12/09 09:53:11;;;;;;;42.40;22.30;;;2.50;99.90;;;;;;5043647;28;20499;-68
2022/12/09 09:55:42;;;;;;;47.70;23.50;;;2.60;99.90;;;;;;5042960;28;20501;-67
2022/12/09 09:58:16;;;;;;;39.67;22.80;;;2.60;99.90;;;;;;5043043;28;20544;-68
2022/12/09 10:00:51;;;;;;;39.63;21.10;;;2.60;99.90;;;;;;5042992;28;20512;-68
2022/12/09 10:03:30;;;;;;;34.63;21.70;;;2.60;99.90;;;;;;5043228;28;20531;-69
2022/12/09 10:06:05;;;;;;;37.80;21.23;;;2.60;99.90;;;;;;5043452;28;20500;-67
2022/12/09 10:08:39;;;;;;;39.47;21.00;;;2.60;99.90;;;;;;5043418;28;20539;-68
2022/12/09 10:11:17;;;;;;;46.40;22.63;;;2.60;99.90;;;;;;5045198;28;20530;-68
2022/12/09 10:13:49;;;;;;;34.97;20.90;;;2.60;99.90;;;;;;5042911;28;20516;-68
2022/12/09 10:16:21;;;;;;;36.53;20.27;;;2.60;99.90;;;;;;5042485;28;20539;-69
2022/12/09 10:19:01;;;;;;;38.97;21.20;;;2.70;99.90;;;;;;5042857;28;20483;-68
2022/12/09 10:21:46;;;;;;;34.03;21.30;;;2.70;99.90;;;;;;5042837;28;20534;-68
2022/12/09 10:24:20;;;;;;;38.63;22.20;;;2.80;99.90;;;;;;5042946;28;20524;-69
2022/12/09 10:26:58;;;;;;;41.37;23.50;;;2.90;99.90;;;;;;5042357;28;20525;-69
2022/12/09 10:29:48;;;;;;;42.67;21.87;;;3.00;99.90;;;;;;5042313;28;20507;-69
2022/12/09 10:32:18;;;;;;;38.40;21.13;;;3.10;99.90;;;;;;5042610;28;20546;-68
2022/12/09 10:34:46;;;;;;;36.43;20.20;;;3.20;99.90;;;;;;5043286;28;20491;-68
2022/12/09 10:37:25;;;;;;;38.73;20.00;;;3.30;99.90;;;;;;5042702;28;20480;-67
2022/12/09 10:39:56;;;;;;;34.37;18.97;;;3.30;99.90;;;;;;5043548;28;20455;-67
2022/12/09 10:45:10;;;;;;;36.43;20.20;;;3.20;99.90;;;;;;5041583;28;20599;-69
2022/12/09 10:47:37;;;;;;;35.03;19.30;;;3.20;99.90;;;;;;5041318;28;20515;-68
2022/12/09 10:50:05;;;;;;;31.10;19.63;;;3.10;99.90;;;;;;5042208;28;20539;-66
2022/12/09 10:52:45;;;;;;;34.27;19.27;;;2.90;99.90;;;;;;5042043;28;20877;-67
2022/12/09 10:55:23;;;;;;;34.20;20.07;;;2.80;99.90;;;;;;5042847;28;20472;-68
2022/12/09 10:57:50;;;;;;;36.37;20.70;;;2.70;99.90;;;;;;5042127;28;20490;-67
2022/12/09 11:00:22;;;;;;;33.97;21.10;;;2.70;99.90;;;;;;5041666;28;20976;-68
2022/12/09 11:02:51;;;;;;;35.30;20.70;;;2.60;99.90;;;;;;5042266;28;20444;-68
2022/12/09 11:05:24;;;;;;;37.73;20.13;;;2.50;99.90;;;;;;5041553;28;20456;-67
2022/12/09 11:07:54;;;;;;;41.87;21.83;;;2.50;99.90;;;;;;5042003;28;20436;-69
2022/12/09 11:10:24;;;;;;;39.30;21.97;;;2.50;99.90;;;;;;5042395;28;20472;-68
2022/12/09 11:12:52;;;;;;;38.63;22.73;;;2.50;99.90;;;;;;5043431;28;20510;-68
2022/12/09 11:15:27;;;;;;;38.40;20.13;;;2.60;99.90;;;;;;5042911;28;20455;-67
2022/12/09 11:18:00;;;;;;;39.07;21.47;;;2.60;99.90;;;;;;5041495;28;20472;-68
2022/12/09 11:20:28;;;;;;;34.73;20.37;;;2.50;99.90;;;;;;5040318;28;20475;-67
2022/12/09 11:23:05;;;;;;;43.60;23.80;;;2.30;99.90;;;;;;5040704;28;20535;-68
2022/12/09 11:25:35;;;;;;;38.40;22.90;;;2.30;99.90;;;;;;5041429;28;20468;-68
2022/12/09 11:28:05;;;;;;;42.57;26.90;;;2.30;99.90;;;;;;5042724;28;20491;-67
2022/12/09 11:30:36;;;;;;;59.37;27.70;;;2.40;99.90;;;;;;5041446;28;20466;-67
2022/12/09 11:33:24;;;;;;;59.23;28.97;;;2.60;99.90;;;;;;5041265;28;20532;-69
2022/12/09 11:35:55;;;;;;;52.27;29.00;;;2.80;99.90;;;;;;5041987;28;20448;-68
2022/12/09 11:38:30;;;;;;;50.40;27.30;;;3.00;99.90;;;;;;5041771;28;20488;-68
2022/12/09 11:41:01;;;;;;;50.37;28.67;;;3.10;99.90;;;;;;5040446;28;20440;-68
2022/12/09 11:43:34;;;;;;;48.67;29.73;;;3.20;99.90;;;;;;5041001;28;20519;-66
2022/12/09 11:46:08;;;;;;;52.43;27.20;;;3.30;99.90;;;;;;5040487;28;20575;-69
2022/12/09 11:48:35;;;;;;;51.30;27.03;;;3.30;99.90;;;;;;5041080;28;20520;-67
2022/12/09 11:51:02;;;;;;;43.90;25.23;;;3.30;99.90;;;;;;5040868;28;20539;-67
2022/12/09 11:53:32;;;;;;;47.40;25.53;;;3.30;99.90;;;;;;5040372;28;20455;-68
2022/12/09 11:56:03;;;;;;;48.33;26.60;;;3.20;99.90;;;;;;5040950;28;20456;-68
2022/12/09 11:58:38;;;;;;;45.90;25.17;;;3.10;99.90;;;;;;5041340;28;20472;-68
2022/12/09 12:01:11;;;;;;;41.00;24.03;;;3.00;99.90;;;;;;5040604;28;20729;-68
2022/12/09 12:03:43;;;;;;;47.30;26.60;;;2.90;99.90;;;;;;5040943;28;20444;-67
2022/12/09 12:06:18;;;;;;;65.37;34.57;;;2.90;99.90;;;;;;5039845;28;20456;-68
2022/12/09 12:08:51;;;;;;;47.30;26.30;;;3.00;99.90;;;;;;5040510;28;20442;-68
2022/12/09 12:11:21;;;;;;;44.37;25.30;;;3.10;99.90;;;;;;5041600;28;20536;-68
2022/12/09 12:13:49;;;;;;;46.73;25.13;;;3.10;99.90;;;;;;5042880;28;20519;-68
2022/12/09 12:16:21;;;;;;;35.93;20.80;;;3.20;99.90;;;;;;5043150;28;20491;-67
2022/12/09 12:18:53;;;;;;;33.40;19.80;;;3.30;99.90;;;;;;5042656;28;20651;-69
2022/12/09 12:21:54;;;;;;;32.03;19.07;;;3.20;99.90;;;;;;5041835;28;20528;-68
2022/12/09 12:24:53;;;;;;;33.50;20.80;;;3.10;99.90;;;;;;5041180;28;20527;-68
2022/12/09 12:27:35;;;;;;;32.03;17.43;;;2.90;99.90;;;;;;5040306;28;20452;-67
2022/12/09 12:30:08;;;;;;;32.03;19.50;;;2.80;99.90;;;;;;5040573;28;20536;-68
2022/12/09 12:32:45;;;;;;;27.30;17.10;;;2.80;99.90;;;;;;5040788;28;20528;-68
2022/12/09 12:35:37;;;;;;;61.90;37.90;;;2.80;99.90;;;;;;5040287;28;20502;-67
2022/12/09 12:38:14;;;;;;;29.40;18.37;;;2.80;99.90;;;;;;5040261;28;20492;-68
2022/12/09 12:40:50;;;;;;;23.10;14.60;;;2.70;99.90;;;;;;5041385;28;20475;-68
2022/12/09 12:46:29;;;;;;;24.47;15.43;;;2.70;99.90;;;;;;5040680;28;20478;-68
2022/12/09 12:49:14;;;;;;;25.40;15.30;;;2.70;99.90;;;;;;5040543;28;20524;-69
2022/12/09 12:51:49;;;;;;;27.70;16.60;;;2.80;99.90;;;;;;5040548;28;20475;-68
2022/12/09 12:54:23;;;;;;;31.63;16.90;;;2.90;99.90;;;;;;5040121;28;20979;-67